createdAt,value
2023-02-25T00:00:21.283Z,98261.58
2023-02-25T00:03:10.273Z,98250.47
2023-02-25T00:05:40.426Z,98257.33
2023-02-25T00:08:09.456Z,98254.75
2023-02-25T00:10:38.250Z,98253.05
2023-02-25T00:13:17.777Z,98247.89
2023-02-25T00:15:47.587Z,98238.46
2023-02-25T00:18:16.788Z,98232.47
2023-02-25T00:20:45.641Z,98235.92
2023-02-25T00:23:14.572Z,98233.38
2023-02-25T00:25:45.574Z,98229.10
2023-02-25T00:28:15.976Z,98227.36
2023-02-25T00:30:44.879Z,98229.97
2023-02-25T00:33:14.280Z,98226.53
2023-02-25T00:35:43.520Z,98223.13
2023-02-25T00:38:16.004Z,98225.66
2023-02-25T00:40:47.826Z,98216.23
2023-02-25T00:43:16.646Z,98215.39
2023-02-25T00:45:45.815Z,98210.23
2023-02-25T00:48:15.263Z,98204.22
2023-02-25T00:50:44.123Z,98210.23
2023-02-25T00:53:12.927Z,98205.09
2023-02-25T00:55:42.309Z,98203.38
2023-02-25T00:58:11.984Z,98193.08
2023-02-25T01:00:51.738Z,98189.63
2023-02-25T01:03:21.634Z,98188.80
2023-02-25T01:05:50.723Z,98186.22
2023-02-25T01:08:20.617Z,98181.91
2023-02-25T01:10:49.776Z,98184.48
2023-02-25T01:13:18.707Z,98176.75
2023-02-25T01:15:49.538Z,98171.59
2023-02-25T01:18:20.087Z,98168.14
2023-02-25T01:20:48.978Z,98162.99
2023-02-25T01:23:17.767Z,98160.42
2023-02-25T01:25:46.636Z,98153.56
2023-02-25T01:28:15.918Z,98155.31
2023-02-25T01:30:45.121Z,98156.22
2023-02-25T01:33:14.190Z,98145.92
2023-02-25T01:35:43.023Z,98144.22
2023-02-25T01:38:12.350Z,98136.49
2023-02-25T01:40:41.192Z,98139.94
2023-02-25T01:43:15.552Z,98137.40
2023-02-25T01:45:44.120Z,98130.50
2023-02-25T01:48:17.246Z,98132.30
2023-02-25T01:50:50.148Z,98128.84
2023-02-25T01:53:24.418Z,98120.28
2023-02-25T01:55:55.224Z,98117.71
2023-02-25T01:58:25.415Z,98105.74
2023-02-25T02:00:55.147Z,98103.17
2023-02-25T02:03:28.208Z,98085.14
2023-02-25T02:06:06.071Z,98086.02
2023-02-25T02:08:36.884Z,98097.20
2023-02-25T02:11:06.186Z,98092.05
2023-02-25T02:13:38.543Z,98089.47
2023-02-25T02:16:22.387Z,98085.23
2023-02-25T02:18:57.361Z,98071.48
2023-02-25T02:21:48.262Z,98069.77
2023-02-25T02:24:45.929Z,98065.50
2023-02-25T02:27:24.089Z,98072.36
2023-02-25T02:30:25.829Z,98069.78
2023-02-25T02:33:03.188Z,98060.35
2023-02-25T02:35:39.290Z,98060.35
2023-02-25T02:38:14.289Z,98062.05
2023-02-25T02:40:57.962Z,98059.48
2023-02-25T02:43:40.166Z,98050.92
2023-02-25T02:46:18.145Z,98039.79
2023-02-25T02:48:55.426Z,98039.75
2023-02-25T02:51:31.798Z,98032.89
2023-02-25T02:54:05.774Z,98026.00
2023-02-25T02:56:39.013Z,98032.02
2023-02-25T02:59:12.247Z,98030.28
2023-02-25T03:01:45.980Z,98032.02
2023-02-25T03:04:21.465Z,98028.57
2023-02-25T03:06:56.340Z,98033.72
2023-02-25T03:09:30.293Z,98027.66
2023-02-25T03:12:00.111Z,98033.64
2023-02-25T03:14:29.219Z,98024.21
2023-02-25T03:17:05.261Z,98026.79
2023-02-25T03:19:39.994Z,98025.13
2023-02-25T03:22:15.864Z,98020.02
2023-02-25T03:24:49.977Z,98021.80
2023-02-25T03:27:25.813Z,98020.94
2023-02-25T03:30:03.733Z,98014.09
2023-02-25T03:32:41.182Z,98009.86
2023-02-25T03:35:12.880Z,98013.27
2023-02-25T03:37:44.282Z,98025.34
2023-02-25T03:40:16.338Z,98033.94
2023-02-25T03:42:49.900Z,98027.09
2023-02-25T03:45:21.556Z,98024.60
2023-02-25T03:47:51.265Z,98034.95
2023-02-25T03:50:21.697Z,98030.62
2023-02-25T03:52:55.510Z,98028.97
2023-02-25T03:55:46.841Z,98022.20
2023-02-25T03:58:18.375Z,98031.71
2023-02-25T04:00:50.678Z,98030.09
2023-02-25T04:03:20.077Z,98026.73
2023-02-25T04:05:48.942Z,98029.39
2023-02-25T04:08:19.091Z,98035.44
2023-02-25T04:10:48.421Z,98039.75
2023-02-25T04:13:20.357Z,98032.98
2023-02-25T04:15:50.786Z,98033.06
2023-02-25T04:18:19.739Z,98035.67
2023-02-25T04:20:48.511Z,98036.58
2023-02-25T04:23:17.648Z,98038.33
2023-02-25T04:25:46.502Z,98040.09
2023-02-25T04:28:15.442Z,98045.28
2023-02-25T04:30:44.713Z,98047.86
2023-02-25T04:33:14.115Z,98048.76
2023-02-25T04:35:43.780Z,98055.64
2023-02-25T04:38:12.614Z,98046.23
2023-02-25T04:40:42.303Z,98044.55
2023-02-25T04:43:14.190Z,98040.28
2023-02-25T04:45:43.049Z,98030.91
2023-02-25T04:48:12.044Z,98032.64
2023-02-25T04:50:41.156Z,98032.64
2023-02-25T04:53:09.977Z,98036.08
2023-02-25T04:55:38.926Z,98025.83
2023-02-25T04:58:07.769Z,98031.84
2023-02-25T05:00:40.082Z,98027.61
2023-02-25T05:03:08.873Z,98024.20
2023-02-25T05:05:38.178Z,98025.94
2023-02-25T05:08:07.089Z,98017.42
2023-02-25T05:10:36.631Z,98021.73
2023-02-25T05:13:06.090Z,98020.91
2023-02-25T05:15:34.936Z,98024.34
2023-02-25T05:18:04.939Z,98024.38
2023-02-25T05:20:33.826Z,98014.13
2023-02-25T05:23:02.671Z,98027.81
2023-02-25T05:25:33.155Z,98022.70
2023-02-25T05:28:02.048Z,98023.58
2023-02-25T05:30:31.025Z,98032.98
2023-02-25T05:32:59.841Z,98027.84
2023-02-25T05:35:28.652Z,98026.11
2023-02-25T05:37:57.986Z,98026.11
2023-02-25T05:40:27.187Z,98038.12
2023-02-25T05:42:57.465Z,98027.84
2023-02-25T05:45:26.306Z,98039.00
2023-02-25T05:47:56.847Z,98045.84
2023-02-25T05:50:25.631Z,98042.44
2023-02-25T05:52:54.669Z,98040.73
2023-02-25T05:55:26.568Z,98043.30
2023-02-25T05:57:55.385Z,98043.27
2023-02-25T06:00:24.449Z,98046.70
2023-02-25T06:02:53.298Z,98040.70
2023-02-25T06:05:22.082Z,98039.83
2023-02-25T06:07:51.041Z,98045.81
2023-02-25T06:10:21.784Z,98038.09
2023-02-25T06:12:50.927Z,98041.47
2023-02-25T06:15:20.397Z,98040.60
2023-02-25T06:17:49.760Z,98041.47
2023-02-25T06:20:19.166Z,98043.14
2023-02-25T06:22:48.113Z,98041.41
2023-02-25T06:25:17.122Z,98041.41
2023-02-25T06:27:45.917Z,98036.26
2023-02-25T06:30:15.234Z,98040.50
2023-02-25T06:32:44.184Z,98032.75
2023-02-25T06:35:14.076Z,98041.30
2023-02-25T06:37:43.070Z,98035.28
2023-02-25T06:40:15.145Z,98038.72
2023-02-25T06:42:44.326Z,98033.55
2023-02-25T06:45:13.255Z,98032.67
2023-02-25T06:47:42.362Z,98039.52
2023-02-25T06:50:12.867Z,98040.36
2023-02-25T06:52:41.657Z,98030.91
2023-02-25T06:55:11.673Z,98038.62
2023-02-25T06:57:49.352Z,98035.18
2023-02-25T07:00:19.773Z,98034.31
2023-02-25T07:02:48.674Z,98038.55
2023-02-25T07:05:17.860Z,98034.23
2023-02-25T07:07:47.149Z,98038.47
2023-02-25T07:10:16.145Z,98036.70
2023-02-25T07:12:45.362Z,98029.81
2023-02-25T07:15:14.252Z,98029.81
2023-02-25T07:17:43.158Z,98035.75
2023-02-25T07:20:13.810Z,98027.99
2023-02-25T07:22:43.125Z,98037.38
2023-02-25T07:25:12.682Z,98030.48
2023-02-25T07:27:45.676Z,98034.73
2023-02-25T07:30:15.511Z,98039.88
2023-02-25T07:32:45.186Z,98030.41
2023-02-25T07:35:14.789Z,98026.97
2023-02-25T07:37:43.688Z,98025.15
2023-02-25T07:40:15.969Z,98029.27
2023-02-25T07:42:45.149Z,98036.82
2023-02-25T07:45:14.530Z,98036.73
2023-02-25T07:47:43.477Z,98027.22
2023-02-25T07:50:13.311Z,98034.03
2023-02-25T07:52:42.373Z,98033.98
2023-02-25T07:55:12.571Z,98027.97
2023-02-25T07:57:42.050Z,98034.77
2023-02-25T08:00:13.386Z,98033.03
2023-02-25T08:02:43.389Z,98028.70
2023-02-25T08:05:12.416Z,98024.38
2023-02-25T08:07:41.230Z,98028.58
2023-02-25T08:10:12.173Z,98029.36
2023-02-25T08:12:42.615Z,98029.22
2023-02-25T08:15:12.508Z,98033.41
2023-02-25T08:17:41.377Z,98043.66
2023-02-25T08:20:14.198Z,98025.63
2023-02-25T08:22:43.115Z,98038.42
2023-02-25T08:25:11.973Z,98030.59
2023-02-25T08:27:43.543Z,98032.25
2023-02-25T08:30:14.634Z,98023.55
2023-02-25T08:32:43.777Z,98010.42
2023-02-25T08:35:13.795Z,98020.52
2023-02-25T08:37:44.903Z,98021.09
2023-02-25T08:40:14.471Z,98022.63
2023-02-25T08:42:43.832Z,98020.68
2023-02-25T08:45:13.001Z,98021.38
2023-02-25T08:47:42.046Z,98014.46
2023-02-25T08:50:12.676Z,98026.44
2023-02-25T08:52:42.335Z,98016.94
2023-02-25T08:55:14.324Z,98019.47
2023-02-25T08:57:43.971Z,98014.25
2023-02-25T09:00:15.434Z,98014.24
2023-02-25T09:02:44.552Z,98019.40
2023-02-25T09:05:13.848Z,98015.84
2023-02-25T09:07:42.785Z,98018.42
2023-02-25T09:10:13.608Z,98010.63
2023-02-25T09:12:45.979Z,98011.39
2023-02-25T09:15:15.202Z,98010.33
2023-02-25T09:17:44.011Z,98008.39
2023-02-25T09:20:13.068Z,98004.64
2023-02-25T09:22:41.896Z,98001.75
2023-02-25T09:25:11.467Z,97996.14
2023-02-25T09:27:44.246Z,97998.65
2023-02-25T09:30:14.899Z,97992.80
2023-02-25T09:32:44.874Z,97994.98
2023-02-25T09:35:13.910Z,97990.24
2023-02-25T09:37:42.760Z,97985.96
2023-02-25T09:40:16.715Z,97986.19
2023-02-25T09:42:53.408Z,97989.20
2023-02-25T09:45:25.014Z,97999.25
2023-02-25T09:47:58.530Z,97994.55
2023-02-25T09:50:32.071Z,97991.20
2023-02-25T09:53:10.939Z,97988.63
2023-02-25T09:55:44.554Z,97995.30
2023-02-25T09:58:24.135Z,97989.93
2023-02-25T10:01:01.880Z,97988.91
2023-02-25T10:03:45.668Z,97989.80
2023-02-25T10:06:22.233Z,97984.62
2023-02-25T10:08:59.489Z,97984.68
2023-02-25T10:11:41.031Z,97985.65
2023-02-25T10:14:22.249Z,97985.92
2023-02-25T10:16:59.442Z,97991.28
2023-02-25T10:19:43.233Z,97995.72
2023-02-25T10:22:34.119Z,98002.93
2023-02-25T10:25:12.047Z,98005.06
2023-02-25T10:27:50.550Z,98001.01
2023-02-25T10:30:26.212Z,97997.84
2023-02-25T10:32:55.777Z,98003.03
2023-02-25T10:35:28.145Z,98001.23
2023-02-25T10:37:56.987Z,98001.11
2023-02-25T10:40:28.751Z,98004.45
2023-02-25T10:43:01.558Z,98002.69
2023-02-25T10:45:32.396Z,97999.16
2023-02-25T10:48:06.931Z,97992.23
2023-02-25T10:50:45.395Z,97999.11
2023-02-25T10:53:17.286Z,97996.58
2023-02-25T10:55:51.756Z,97996.63
2023-02-25T10:58:28.245Z,98000.30
2023-02-25T11:01:01.661Z,98001.36
2023-02-25T11:03:32.901Z,98000.67
2023-02-25T11:06:20.676Z,97998.16
2023-02-25T11:08:52.221Z,98002.37
2023-02-25T11:11:24.219Z,98003.20
2023-02-25T11:14:05.294Z,97994.57
2023-02-25T11:16:37.488Z,97998.66
2023-02-25T11:19:17.633Z,97990.60
2023-02-25T11:21:47.766Z,97993.11
2023-02-25T11:24:23.320Z,97990.45
2023-02-25T11:26:53.436Z,97991.13
2023-02-25T11:29:26.092Z,97988.42
2023-02-25T11:31:59.556Z,97982.98
2023-02-25T11:34:31.264Z,97987.00
2023-02-25T11:37:24.692Z,97988.63
2023-02-25T11:39:56.281Z,97985.78
2023-02-25T11:42:26.850Z,97987.10
2023-02-25T11:45:01.918Z,97982.54
2023-02-25T11:47:33.729Z,97977.28
2023-02-25T11:50:24.024Z,97985.95
2023-02-25T11:53:04.015Z,97983.65
2023-02-25T11:55:53.303Z,97998.77
2023-02-25T11:58:37.722Z,98002.80
2023-02-25T12:01:17.329Z,98009.42
2023-02-25T12:04:05.804Z,98003.89
2023-02-25T12:06:51.931Z,97998.16
2023-02-25T12:09:43.124Z,98004.28
2023-02-25T12:12:44.265Z,97997.40
2023-02-25T12:16:03.844Z,98002.63
2023-02-25T12:19:14.828Z,98015.03
2023-02-25T12:22:12.486Z,98009.16
2023-02-25T12:25:12.387Z,98009.10
2023-02-25T12:27:54.398Z,98011.80
2023-02-25T12:30:52.420Z,98009.17
2023-02-25T12:33:56.703Z,98016.72
2023-02-25T12:36:42.334Z,98012.89
2023-02-25T12:39:26.667Z,98008.44
2023-02-25T12:42:05.499Z,98014.17
2023-02-25T12:45:09.882Z,98018.13
2023-02-25T12:47:57.465Z,98020.20
2023-02-25T12:50:52.615Z,98019.87
2023-02-25T12:53:37.875Z,98017.75
2023-02-25T12:56:28.651Z,98027.75
2023-02-25T12:59:11.574Z,98031.22
2023-02-25T13:02:12.732Z,98027.34
2023-02-25T13:04:58.517Z,98031.33
2023-02-25T13:07:48.650Z,98036.91
2023-02-25T13:10:34.621Z,98044.02
2023-02-25T13:13:20.292Z,98043.97
2023-02-25T13:16:04.231Z,98039.73
2023-02-25T13:18:41.851Z,98041.26
2023-02-25T13:21:35.543Z,98032.42
2023-02-25T13:24:17.537Z,98040.10
2023-02-25T13:27:13.495Z,98037.73
2023-02-25T13:30:12.828Z,98045.02
2023-02-25T13:32:54.656Z,98053.14
2023-02-25T13:35:38.786Z,98055.91
2023-02-25T13:38:23.680Z,98057.55
2023-02-25T13:41:06.589Z,98064.34
2023-02-25T13:44:05.655Z,98065.18
2023-02-25T13:46:52.809Z,98069.58
2023-02-25T13:49:50.940Z,98070.41
2023-02-25T13:52:28.633Z,98075.39
2023-02-25T13:55:23.491Z,98084.12
2023-02-25T13:58:13.061Z,98081.63
2023-02-25T14:01:00.158Z,98084.20
2023-02-25T14:04:19.259Z,98089.42
2023-02-25T14:07:10.836Z,98082.20
2023-02-25T14:09:46.115Z,98093.22
2023-02-25T14:12:33.603Z,98101.03
2023-02-25T14:15:32.572Z,98098.87
2023-02-25T14:18:20.006Z,98095.86
2023-02-25T14:21:05.447Z,98097.84
2023-02-25T14:23:45.893Z,98116.08
2023-02-25T14:26:30.534Z,98114.33
2023-02-25T14:29:20.311Z,98115.21
2023-02-25T14:32:01.865Z,98118.72
2023-02-25T14:34:56.375Z,98118.78
2023-02-25T14:37:39.587Z,98118.00
2023-02-25T14:40:25.593Z,98131.77
2023-02-25T14:43:26.659Z,98128.42
2023-02-25T14:46:00.707Z,98136.31
2023-02-25T14:48:39.272Z,98143.25
2023-02-25T14:51:35.094Z,98141.73
2023-02-25T14:54:41.550Z,98152.20
2023-02-25T14:57:45.147Z,98162.70
2023-02-25T15:00:51.541Z,98173.21
2023-02-25T15:03:50.454Z,98178.50
2023-02-25T15:06:37.242Z,98177.72
2023-02-25T15:09:31.021Z,98175.14
2023-02-25T15:12:16.832Z,98182.97
2023-02-25T15:15:26.217Z,98181.35
2023-02-25T15:18:22.906Z,98184.89
2023-02-25T15:20:53.071Z,98190.12
2023-02-25T15:23:41.141Z,98191.88
2023-02-25T15:26:23.811Z,98199.66
2023-02-25T15:28:54.930Z,98211.73
2023-02-25T15:31:30.265Z,98214.31
2023-02-25T15:34:38.074Z,98221.17
2023-02-25T15:37:29.881Z,98226.33
2023-02-25T15:40:02.267Z,98228.91
2023-02-25T15:42:48.045Z,98228.91
2023-02-25T15:45:52.111Z,98228.91
2023-02-25T15:48:39.311Z,98234.09
2023-02-25T15:51:32.241Z,98243.53
2023-02-25T15:54:02.686Z,98246.98
2023-02-25T15:56:48.111Z,98242.70
2023-02-25T15:59:43.285Z,98246.16
2023-02-25T16:02:45.884Z,98249.64
2023-02-25T16:05:25.146Z,98260.02
2023-02-25T16:08:13.363Z,98264.38
2023-02-25T16:10:46.162Z,98271.27
2023-02-25T16:13:21.749Z,98277.37
2023-02-25T16:15:55.921Z,98279.08
2023-02-25T16:18:27.287Z,98275.66
2023-02-25T16:21:05.768Z,98284.30
2023-02-25T16:23:40.622Z,98279.18
2023-02-25T16:26:22.137Z,98278.34
2023-02-25T16:29:00.518Z,98288.64
2023-02-25T16:31:38.996Z,98289.48
2023-02-25T16:34:16.717Z,98302.36
2023-02-25T16:36:54.526Z,98306.67
2023-02-25T16:39:29.944Z,98310.98
2023-02-25T16:42:06.022Z,98317.02
2023-02-25T16:44:38.667Z,98333.33
2023-02-25T16:47:23.601Z,98331.69
2023-02-25T16:49:54.734Z,98336.00
2023-02-25T16:52:29.919Z,98338.64
2023-02-25T16:55:04.791Z,98344.66
2023-02-25T16:57:38.394Z,98344.73
2023-02-25T17:00:16.606Z,98346.52
2023-02-25T17:02:47.530Z,98352.59
2023-02-25T17:05:29.959Z,98348.34
2023-02-25T17:08:01.591Z,98356.99
2023-02-25T17:10:33.359Z,98352.74
2023-02-25T17:13:04.278Z,98359.63
2023-02-25T17:15:35.316Z,98361.36
2023-02-25T17:18:09.991Z,98365.66
2023-02-25T17:20:41.534Z,98368.27
2023-02-25T17:23:12.294Z,98367.38
2023-02-25T17:25:45.556Z,98374.23
2023-02-25T17:28:21.761Z,98375.94
2023-02-25T17:30:54.640Z,98383.63
2023-02-25T17:33:26.995Z,98390.48
2023-02-25T17:35:59.835Z,98387.88
2023-02-25T17:38:30.502Z,98391.30
2023-02-25T17:41:00.324Z,98393.84
2023-02-25T17:43:36.801Z,98397.25
2023-02-25T17:46:21.390Z,98404.11
2023-02-25T17:48:55.607Z,98410.13
2023-02-25T17:51:33.371Z,98411.02
2023-02-25T17:54:08.402Z,98410.18
2023-02-25T17:56:42.911Z,98422.20
2023-02-25T17:59:38.119Z,98420.52
2023-02-25T18:02:29.268Z,98419.73
2023-02-25T18:05:21.770Z,98431.75
2023-02-25T18:08:10.536Z,98430.95
2023-02-25T18:10:46.269Z,98436.98
2023-02-25T18:13:24.238Z,98444.72
2023-02-25T18:16:34.292Z,98445.59
2023-02-25T18:19:23.311Z,98449.86
2023-02-25T18:21:53.399Z,98458.45
2023-02-25T18:24:29.094Z,98459.31
2023-02-25T18:27:26.536Z,98465.33
2023-02-25T18:29:59.655Z,98469.61
2023-02-25T18:32:28.963Z,98477.32
2023-02-25T18:34:58.641Z,98481.60
2023-02-25T18:37:31.716Z,98481.63
2023-02-25T18:40:01.083Z,98485.91
2023-02-25T18:42:30.397Z,98490.21
2023-02-25T18:44:59.478Z,98488.48
2023-02-25T18:47:33.125Z,98495.33
2023-02-25T18:50:02.370Z,98491.03
2023-02-25T18:52:31.651Z,98504.74
2023-02-25T18:55:00.720Z,98502.14
2023-02-25T18:57:30.156Z,98504.72
2023-02-25T18:59:59.205Z,98507.27
2023-02-25T19:02:31.685Z,98508.98
2023-02-25T19:05:02.666Z,98509.82
2023-02-25T19:07:34.514Z,98514.11
2023-02-25T19:10:07.391Z,98527.84
2023-02-25T19:12:40.666Z,98530.42
2023-02-25T19:15:15.756Z,98532.12
2023-02-25T19:17:45.907Z,98546.75
2023-02-25T19:20:20.904Z,98542.45
2023-02-25T19:22:52.623Z,98554.48
2023-02-25T19:25:23.933Z,98561.35
2023-02-25T19:27:55.745Z,98560.52
2023-02-25T19:30:28.652Z,98568.26
2023-02-25T19:33:03.532Z,98574.28
2023-02-25T19:35:39.025Z,98584.58
2023-02-25T19:38:11.542Z,98581.18
2023-02-25T19:40:40.641Z,98583.74
2023-02-25T19:43:09.895Z,98589.75
2023-02-25T19:45:42.137Z,98596.63
2023-02-25T19:48:11.647Z,98600.91
2023-02-25T19:50:42.315Z,98601.80
2023-02-25T19:53:11.738Z,98610.36
2023-02-25T19:55:43.750Z,98612.09
2023-02-25T19:58:12.953Z,98623.22
2023-02-25T20:00:46.841Z,98623.25
2023-02-25T20:03:16.529Z,98627.52
2023-02-25T20:05:45.495Z,98628.41
2023-02-25T20:08:14.406Z,98636.13
2023-02-25T20:10:44.145Z,98636.11
2023-02-25T20:13:13.656Z,98645.56
2023-02-25T20:15:42.508Z,98649.83
2023-02-25T20:18:11.658Z,98658.41
2023-02-25T20:20:42.704Z,98658.41
2023-02-25T20:23:12.028Z,98667.00
2023-02-25T20:25:42.020Z,98668.70
2023-02-25T20:28:11.876Z,98676.41
2023-02-25T20:30:40.848Z,98678.15
2023-02-25T20:33:11.510Z,98676.41
2023-02-25T20:35:42.640Z,98683.31
2023-02-25T20:38:29.531Z,98685.87
2023-02-25T20:40:59.529Z,98685.89
2023-02-25T20:43:28.926Z,98694.44
2023-02-25T20:45:58.697Z,98698.75
2023-02-25T20:48:32.264Z,98709.03
2023-02-25T20:51:01.792Z,98706.45
2023-02-25T20:53:32.851Z,98710.77
2023-02-25T20:56:01.886Z,98719.33
2023-02-25T20:58:31.491Z,98722.77
2023-02-25T21:01:00.902Z,98724.48
2023-02-25T21:03:30.932Z,98735.66
2023-02-25T21:06:00.588Z,98746.80
2023-02-25T21:08:29.844Z,98750.25
2023-02-25T21:10:59.374Z,98763.10
2023-02-25T21:13:28.927Z,98757.97
2023-02-25T21:16:00.393Z,98769.13
2023-02-25T21:18:31.429Z,98770.82
2023-02-25T21:21:07.760Z,98781.11
2023-02-25T21:23:39.039Z,98771.70
2023-02-25T21:26:09.734Z,98788.82
2023-02-25T21:28:41.049Z,98789.67
2023-02-25T21:31:12.073Z,98791.42
2023-02-25T21:33:42.186Z,98800.83
2023-02-25T21:36:12.457Z,98796.54
2023-02-25T21:38:41.739Z,98802.53
2023-02-25T21:41:12.930Z,98813.69
2023-02-25T21:43:43.010Z,98812.81
2023-02-25T21:46:18.284Z,98813.69
2023-02-25T21:48:55.158Z,98813.67
2023-02-25T21:51:25.977Z,98828.27
2023-02-25T21:53:56.748Z,98823.10
2023-02-25T21:56:27.434Z,98835.09
2023-02-25T21:58:58.591Z,98833.38
2023-02-25T22:01:29.931Z,98840.25
2023-02-25T22:03:59.754Z,98841.09
2023-02-25T22:06:29.559Z,98843.65
2023-02-25T22:08:59.169Z,98846.23
2023-02-25T22:11:31.208Z,98856.50
2023-02-25T22:14:02.336Z,98859.93
2023-02-25T22:16:31.620Z,98860.78
2023-02-25T22:19:00.678Z,98873.63
2023-02-25T22:21:31.814Z,98875.31
2023-02-25T22:24:02.487Z,98882.18
2023-02-25T22:26:34.605Z,98883.01
2023-02-25T22:29:06.842Z,98893.30
2023-02-25T22:31:40.877Z,98890.73
2023-02-25T22:34:11.195Z,98895.00
2023-02-25T22:36:43.748Z,98905.28
2023-02-25T22:39:20.117Z,98902.70
2023-02-25T22:41:53.852Z,98915.52
2023-02-25T22:44:23.629Z,98915.52
2023-02-25T22:46:55.290Z,98932.61
2023-02-25T22:49:26.363Z,98936.88
2023-02-25T22:51:56.627Z,98937.73
2023-02-25T22:54:27.722Z,98945.44
2023-02-25T22:56:59.671Z,98946.28
2023-02-25T22:59:29.067Z,98950.55
2023-02-25T23:01:59.871Z,98947.98
2023-02-25T23:04:30.846Z,98959.95
2023-02-25T23:07:04.612Z,98964.22
2023-02-25T23:09:33.750Z,98965.06
2023-02-25T23:12:03.577Z,98975.31
2023-02-25T23:14:35.101Z,98986.42
2023-02-25T23:17:04.107Z,98986.42
2023-02-25T23:19:33.099Z,99001.83
2023-02-25T23:22:03.849Z,99000.08
2023-02-25T23:24:33.459Z,99005.22
2023-02-25T23:27:03.300Z,99012.89
2023-02-25T23:29:32.439Z,99014.61
2023-02-25T23:32:02.385Z,99015.45
2023-02-25T23:34:31.912Z,99016.30
2023-02-25T23:37:04.597Z,99013.73
2023-02-25T23:39:34.191Z,99029.98
2023-02-25T23:42:03.191Z,99036.84
2023-02-25T23:44:32.248Z,99035.95
2023-02-25T23:47:01.827Z,99047.07
2023-02-25T23:49:31.357Z,99041.09
2023-02-25T23:52:08.433Z,99040.22
2023-02-25T23:54:38.610Z,99048.80
2023-02-25T23:57:07.752Z,99053.05
2023-02-25T23:59:37.838Z,99055.59
